createdAt,value
2019-03-27T00:01:19.351Z,-21439.39
2019-03-27T00:03:47.635Z,-21449.50
2019-03-27T00:06:15.915Z,-21449.07
2019-03-27T00:08:44.179Z,-21400.48
2019-03-27T00:11:15.864Z,-21402.45
2019-03-27T00:13:42.444Z,-21437.29
2019-03-27T00:16:10.776Z,-21455.53
2019-03-27T00:18:39.052Z,-21459.59
2019-03-27T00:21:07.308Z,-21441.22
2019-03-27T00:23:35.583Z,-21416.50
2019-03-27T00:26:03.843Z,-21428.16
2019-03-27T00:28:32.133Z,-21443.32
2019-03-27T00:31:00.420Z,-21449.64
2019-03-27T00:33:28.706Z,-21445.29
2019-03-27T00:35:56.989Z,-21459.31
2019-03-27T00:38:25.254Z,-21466.61
2019-03-27T00:40:53.597Z,-21460.86
2019-03-27T00:43:21.980Z,-21444.31
2019-03-27T00:45:50.249Z,-21447.11
2019-03-27T00:48:19.386Z,-21462.68
2019-03-27T00:50:47.738Z,-21453.56
2019-03-27T00:53:16.004Z,-21455.81
2019-03-27T00:55:44.285Z,-21437.43
2019-03-27T00:58:12.568Z,-21438.97
2019-03-27T01:00:46.944Z,-21432.52
2019-03-27T01:03:15.223Z,-21412.57
2019-03-27T01:05:43.477Z,-21441.22
2019-03-27T01:08:11.766Z,-21448.24
2019-03-27T01:10:40.037Z,-21456.93
2019-03-27T01:13:08.871Z,-21450.90
2019-03-27T01:15:40.098Z,-21455.95
2019-03-27T01:18:07.133Z,-21454.97
2019-03-27T01:20:36.647Z,-21441.36
2019-03-27T01:23:04.924Z,-21429.43
2019-03-27T01:25:33.213Z,-21426.90
2019-03-27T01:28:01.468Z,-21402.45
2019-03-27T01:30:29.768Z,-21423.39
2019-03-27T01:32:58.017Z,-21459.73
2019-03-27T01:35:26.353Z,-21461.27
2019-03-27T01:37:55.287Z,-21453.00
2019-03-27T01:40:23.558Z,-21437.71
2019-03-27T01:42:51.872Z,-21419.59
2019-03-27T01:45:20.130Z,-21403.86
2019-03-27T01:47:48.414Z,-21427.60
2019-03-27T01:50:16.751Z,-21442.48
2019-03-27T01:52:45.031Z,-21437.99
2019-03-27T01:55:13.302Z,-21452.16
2019-03-27T01:57:41.576Z,-21456.09
2019-03-27T02:00:09.908Z,-21450.06
2019-03-27T02:02:38.176Z,-21443.32
2019-03-27T02:05:07.325Z,-21458.05
2019-03-27T02:07:35.601Z,-21431.95
2019-03-27T02:10:07.287Z,-21440.66
2019-03-27T02:12:35.549Z,-21435.04
2019-03-27T02:15:05.614Z,-21421.99
2019-03-27T02:17:33.882Z,-21434.48
2019-03-27T02:20:02.147Z,-21423.39
2019-03-27T02:22:30.422Z,-21417.35
2019-03-27T02:24:58.700Z,-21423.25
2019-03-27T02:27:26.969Z,-21412.29
2019-03-27T02:29:55.247Z,-21414.11
2019-03-27T02:32:23.513Z,-21418.47
2019-03-27T02:34:51.792Z,-21405.68
2019-03-27T02:37:20.048Z,-21398.37
2019-03-27T02:39:48.337Z,-21420.71
2019-03-27T02:42:17.710Z,-21420.57
2019-03-27T02:44:46.001Z,-21418.75
2019-03-27T02:47:14.278Z,-21404.13
2019-03-27T02:49:42.540Z,-21401.89
2019-03-27T02:52:10.810Z,-21365.30
2019-03-27T02:54:39.070Z,-21351.77
2019-03-27T02:57:07.333Z,-21398.23
2019-03-27T02:59:35.627Z,-21381.91
2019-03-27T03:02:03.964Z,-21360.51
2019-03-27T03:04:32.241Z,-21354.59
2019-03-27T03:07:00.587Z,-21410.32
2019-03-27T03:09:28.876Z,-21405.68
2019-03-27T03:11:57.164Z,-21388.52
2019-03-27T03:14:25.427Z,-21372.06
2019-03-27T03:16:53.711Z,-21387.12
2019-03-27T03:19:21.985Z,-21392.88
2019-03-27T03:21:50.272Z,-21367.83
2019-03-27T03:24:18.526Z,-21350.22
2019-03-27T03:26:50.646Z,-21376.14
2019-03-27T03:29:16.789Z,-21395.97
2019-03-27T03:31:45.101Z,-21383.74
2019-03-27T03:34:13.329Z,-21385.29
2019-03-27T03:36:41.593Z,-21406.10
2019-03-27T03:39:09.858Z,-21378.39
2019-03-27T03:41:39.125Z,-21397.81
2019-03-27T03:44:07.397Z,-21397.81
2019-03-27T03:46:35.703Z,-21388.66
2019-03-27T03:49:03.978Z,-21413.55
2019-03-27T03:51:32.293Z,-21415.80
2019-03-27T03:54:00.648Z,-21356.00
2019-03-27T03:56:29.570Z,-21401.32
2019-03-27T03:58:58.704Z,-21395.41
2019-03-27T04:01:27.466Z,-21421.84
2019-03-27T04:03:57.489Z,-21386.83
2019-03-27T04:06:25.805Z,-21421.28
2019-03-27T04:08:54.089Z,-21376.14
2019-03-27T04:11:22.401Z,-21390.07
2019-03-27T04:13:50.660Z,-21377.69
2019-03-27T04:16:18.911Z,-21397.95
2019-03-27T04:18:47.207Z,-21391.48
2019-03-27T04:21:15.455Z,-21406.95
2019-03-27T04:23:43.734Z,-21414.96
2019-03-27T04:26:11.998Z,-21422.27
2019-03-27T04:28:40.261Z,-21430.55
2019-03-27T04:31:08.545Z,-21439.53
2019-03-27T04:33:36.822Z,-21411.45
2019-03-27T04:36:05.092Z,-21425.77
2019-03-27T04:38:33.351Z,-21423.11
2019-03-27T04:41:01.635Z,-21426.62
2019-03-27T04:43:29.902Z,-21451.04
2019-03-27T04:45:58.198Z,-21466.32
2019-03-27T04:48:26.543Z,-21457.07
2019-03-27T04:50:54.870Z,-21449.78
2019-03-27T04:53:23.356Z,-21445.57
2019-03-27T04:55:51.644Z,-21444.17
2019-03-27T04:58:22.638Z,-21412.71
2019-03-27T05:00:50.934Z,-21414.39
2019-03-27T05:03:20.208Z,-21442.20
2019-03-27T05:05:50.561Z,-21421.56
2019-03-27T05:08:18.808Z,-21398.37
2019-03-27T05:10:47.078Z,-21377.69
2019-03-27T05:13:15.354Z,-21382.05
2019-03-27T05:15:43.623Z,-21372.06
2019-03-27T05:18:11.883Z,-21396.82
2019-03-27T05:20:40.154Z,-21403.57
2019-03-27T05:23:08.424Z,-21410.88
2019-03-27T05:25:36.691Z,-21421.14
2019-03-27T05:28:04.955Z,-21435.61
2019-03-27T05:30:33.224Z,-21416.36
2019-03-27T05:33:01.579Z,-21410.32
2019-03-27T05:35:29.838Z,-21411.45
2019-03-27T05:37:58.098Z,-21426.76
2019-03-27T05:40:26.375Z,-21414.54
2019-03-27T05:43:00.606Z,-21412.29
2019-03-27T05:45:24.633Z,-21422.97
2019-03-27T05:47:59.273Z,-21410.60
2019-03-27T05:50:22.893Z,-21419.31
2019-03-27T05:52:51.178Z,-21411.45
2019-03-27T05:55:19.517Z,-21420.44
2019-03-27T05:57:47.781Z,-21395.55
2019-03-27T06:00:17.761Z,-21432.79
2019-03-27T06:02:46.093Z,-21437.85
2019-03-27T06:05:14.323Z,-21440.93
2019-03-27T06:07:42.621Z,-21438.55
2019-03-27T06:10:11.218Z,-21437.99
2019-03-27T06:12:39.485Z,-21440.09
2019-03-27T06:15:07.756Z,-21418.89
2019-03-27T06:17:36.061Z,-21425.35
2019-03-27T06:20:05.878Z,-21430.55
2019-03-27T06:22:34.149Z,-21424.23
2019-03-27T06:25:02.447Z,-21436.02
2019-03-27T06:27:30.725Z,-21449.64
2019-03-27T06:29:58.999Z,-21452.02
2019-03-27T06:32:27.259Z,-21452.02
2019-03-27T06:34:55.522Z,-21445.01
2019-03-27T06:37:23.812Z,-21455.53
2019-03-27T06:39:52.092Z,-21461.13
2019-03-27T06:42:20.393Z,-21460.02
2019-03-27T06:44:48.667Z,-21444.03
2019-03-27T06:47:16.945Z,-21460.86
2019-03-27T06:49:45.223Z,-21445.15
2019-03-27T06:52:13.493Z,-21451.88
2019-03-27T06:54:41.767Z,-21466.04
2019-03-27T06:57:10.032Z,-21451.04
2019-03-27T06:59:38.300Z,-21453.00
2019-03-27T07:02:06.540Z,-21456.93
2019-03-27T07:04:34.818Z,-21453.56
2019-03-27T07:07:03.089Z,-21406.52
2019-03-27T07:09:31.365Z,-21420.85
2019-03-27T07:11:59.648Z,-21428.86
2019-03-27T07:14:27.949Z,-21450.34
2019-03-27T07:16:56.256Z,-21458.89
2019-03-27T07:19:24.589Z,-21446.70
2019-03-27T07:21:52.783Z,-21424.37
2019-03-27T07:24:21.063Z,-21448.80
2019-03-27T07:26:49.323Z,-21449.64
2019-03-27T07:29:19.071Z,-21455.95
2019-03-27T07:31:47.655Z,-21459.03
2019-03-27T07:34:15.952Z,-21432.52
2019-03-27T07:36:44.216Z,-21454.26
2019-03-27T07:39:12.570Z,-21461.83
2019-03-27T07:41:40.873Z,-21464.36
2019-03-27T07:44:09.129Z,-21462.25
2019-03-27T07:46:37.512Z,-21467.45
2019-03-27T07:49:06.030Z,-21468.15
2019-03-27T07:51:34.910Z,-21469.83
2019-03-27T07:54:03.311Z,-21479.07
2019-03-27T07:56:34.722Z,-21470.81
2019-03-27T07:59:06.742Z,-21485.23
2019-03-27T08:01:36.079Z,-21495.32
2019-03-27T08:04:04.483Z,-21491.96
2019-03-27T08:06:32.841Z,-21497.00
2019-03-27T08:09:01.111Z,-21498.82
2019-03-27T08:11:29.526Z,-21503.57
2019-03-27T08:13:57.934Z,-21511.27
2019-03-27T08:16:26.227Z,-21520.77
2019-03-27T08:19:06.972Z,-21514.62
2019-03-27T08:21:24.550Z,-21490.14
2019-03-27T08:23:52.846Z,-21519.94
2019-03-27T08:26:21.105Z,-21526.08
2019-03-27T08:28:49.399Z,-21520.07
2019-03-27T08:31:17.671Z,-21522.73
2019-03-27T08:33:46.005Z,-21508.05
2019-03-27T08:36:14.275Z,-21494.90
2019-03-27T08:38:42.540Z,-21490.00
2019-03-27T08:41:10.816Z,-21480.20
2019-03-27T08:43:39.112Z,-21529.86
2019-03-27T08:46:07.406Z,-21525.52
2019-03-27T08:48:39.005Z,-21537.68
2019-03-27T08:51:05.749Z,-21490.98
2019-03-27T08:53:34.012Z,-21517.70
2019-03-27T08:56:02.304Z,-21532.93
2019-03-27T08:58:30.589Z,-21530.56
2019-03-27T09:00:58.851Z,-21535.59
2019-03-27T09:03:27.144Z,-21548.16
2019-03-27T09:05:55.404Z,-21539.91
2019-03-27T09:08:23.812Z,-21540.89
2019-03-27T09:10:52.161Z,-21527.48
2019-03-27T09:13:20.527Z,-21522.73
2019-03-27T09:15:48.772Z,-21564.34
2019-03-27T09:18:17.146Z,-21531.81
2019-03-27T09:20:45.461Z,-21526.08
2019-03-27T09:23:13.712Z,-21547.32
2019-03-27T09:25:42.050Z,-21545.78
2019-03-27T09:28:10.316Z,-21572.98
2019-03-27T09:30:38.576Z,-21580.37
2019-03-27T09:33:06.923Z,-21576.60
2019-03-27T09:35:35.362Z,-21579.67
2019-03-27T09:38:03.620Z,-21572.98
2019-03-27T09:40:31.977Z,-21530.84
2019-03-27T09:43:00.237Z,-21562.38
2019-03-27T09:45:28.514Z,-21552.20
2019-03-27T09:47:56.782Z,-21569.21
2019-03-27T09:50:25.054Z,-21589.98
2019-03-27T09:52:53.332Z,-21577.16
2019-03-27T09:55:21.617Z,-21557.50
2019-03-27T09:57:49.892Z,-21557.92
2019-03-27T10:00:21.332Z,-21570.61
2019-03-27T10:02:49.612Z,-21610.45
2019-03-27T10:05:17.898Z,-21601.95
2019-03-27T10:07:46.235Z,-21564.34
2019-03-27T10:10:14.868Z,-21562.94
2019-03-27T10:12:43.153Z,-21547.59
2019-03-27T10:15:13.948Z,-21577.44
2019-03-27T10:17:43.437Z,-21579.95
2019-03-27T10:20:13.679Z,-21591.79
2019-03-27T10:22:41.856Z,-21570.19
2019-03-27T10:25:10.424Z,-21568.38
2019-03-27T10:27:38.697Z,-21576.33
2019-03-27T10:30:07.874Z,-21592.49
2019-03-27T10:32:36.167Z,-21604.18
2019-03-27T10:35:06.565Z,-21572.56
2019-03-27T10:37:34.848Z,-21564.75
2019-03-27T10:40:04.013Z,-21568.52
2019-03-27T10:42:32.351Z,-21569.08
2019-03-27T10:45:00.653Z,-21554.29
2019-03-27T10:47:28.897Z,-21548.16
2019-03-27T10:49:57.159Z,-21577.30
2019-03-27T10:52:28.779Z,-21555.13
2019-03-27T10:54:58.158Z,-21560.43
2019-03-27T10:57:26.498Z,-21552.34
2019-03-27T10:59:54.770Z,-21577.02
2019-03-27T11:02:23.030Z,-21564.05
2019-03-27T11:04:51.303Z,-21555.13
2019-03-27T11:07:19.571Z,-21565.59
2019-03-27T11:09:47.848Z,-21589.98
2019-03-27T11:12:16.105Z,-21559.45
2019-03-27T11:14:44.379Z,-21544.38
2019-03-27T11:17:12.657Z,-21570.47
2019-03-27T11:19:40.911Z,-21574.93
2019-03-27T11:22:09.185Z,-21592.76
2019-03-27T11:24:37.445Z,-21580.78
2019-03-27T11:27:05.710Z,-21556.52
2019-03-27T11:29:33.990Z,-21567.41
2019-03-27T11:32:02.246Z,-21577.71
2019-03-27T11:34:30.527Z,-21562.66
2019-03-27T11:36:58.769Z,-21538.93
2019-03-27T11:39:36.425Z,-21570.05
2019-03-27T11:42:06.676Z,-21571.59
2019-03-27T11:44:35.200Z,-21592.76
2019-03-27T11:47:03.442Z,-21594.16
2019-03-27T11:49:31.769Z,-21573.68
2019-03-27T11:52:00.015Z,-21554.29
2019-03-27T11:54:28.293Z,-21610.16
2019-03-27T11:56:56.542Z,-21622.12
2019-03-27T11:59:24.811Z,-21627.68
2019-03-27T12:01:53.078Z,-21618.09
2019-03-27T12:04:21.379Z,-21630.60
2019-03-27T12:06:49.649Z,-21619.34
2019-03-27T12:09:17.898Z,-21601.95
2019-03-27T12:11:46.142Z,-21645.19
2019-03-27T12:14:14.503Z,-21636.86
2019-03-27T12:16:42.782Z,-21629.91
2019-03-27T12:19:11.041Z,-21617.12
2019-03-27T12:21:39.289Z,-21630.05
2019-03-27T12:24:07.568Z,-21645.61
2019-03-27T12:26:35.838Z,-21645.61
2019-03-27T12:29:04.110Z,-21679.45
2019-03-27T12:31:32.378Z,-21675.43
2019-03-27T12:34:00.647Z,-21697.73
2019-03-27T12:36:28.934Z,-21716.00
2019-03-27T12:38:57.206Z,-21704.38
2019-03-27T12:41:25.468Z,-21696.08
2019-03-27T12:43:53.724Z,-21706.18
2019-03-27T12:46:21.990Z,-21659.76
2019-03-27T12:48:50.334Z,-21678.62
2019-03-27T12:51:18.600Z,-21649.77
2019-03-27T12:53:46.884Z,-21669.34
2019-03-27T12:56:15.158Z,-21643.94
2019-03-27T12:58:43.477Z,-21594.02
2019-03-27T13:01:11.720Z,-21592.91
2019-03-27T13:03:40.011Z,-21569.63
2019-03-27T13:06:08.296Z,-21571.59
2019-03-27T13:08:36.592Z,-21575.77
2019-03-27T13:11:04.854Z,-21566.01
2019-03-27T13:13:33.128Z,-21609.19
2019-03-27T13:16:01.396Z,-21600.98
2019-03-27T13:18:29.685Z,-21612.39
2019-03-27T13:20:58.803Z,-21630.05
2019-03-27T13:23:27.129Z,-21619.06
2019-03-27T13:25:55.483Z,-21614.20
2019-03-27T13:28:23.736Z,-21600.84
2019-03-27T13:30:52.030Z,-21577.16
2019-03-27T13:33:20.303Z,-21585.66
2019-03-27T13:35:48.576Z,-21595.69
2019-03-27T13:38:16.855Z,-21529.02
2019-03-27T13:40:45.126Z,-21569.08
2019-03-27T13:43:14.422Z,-21606.69
2019-03-27T13:45:42.710Z,-21631.02
2019-03-27T13:48:11.001Z,-21661.84
2019-03-27T13:50:39.272Z,-21620.60
2019-03-27T13:53:07.577Z,-21561.12
2019-03-27T13:55:35.833Z,-21548.71
2019-03-27T13:58:04.194Z,-21607.80
2019-03-27T14:00:32.429Z,-21733.83
2019-03-27T14:03:00.735Z,-21775.92
2019-03-27T14:05:29.027Z,-21761.31
2019-03-27T14:07:57.395Z,-21772.06
2019-03-27T14:10:25.677Z,-21738.25
2019-03-27T14:12:53.939Z,-21828.75
2019-03-27T14:15:22.347Z,-21871.83
2019-03-27T14:17:50.633Z,-21895.52
2019-03-27T14:20:20.037Z,-21847.70
2019-03-27T14:22:48.397Z,-21845.23
2019-03-27T14:25:17.591Z,-21825.18
2019-03-27T14:27:45.890Z,-21855.93
2019-03-27T14:30:17.162Z,-21819.68
2019-03-27T14:32:45.427Z,-21771.64
2019-03-27T14:35:15.433Z,-21887.30
2019-03-27T14:37:43.696Z,-21847.56
2019-03-27T14:40:12.056Z,-21861.28
2019-03-27T14:42:40.340Z,-21867.86
2019-03-27T14:45:09.270Z,-21893.73
2019-03-27T14:47:37.681Z,-21828.61
2019-03-27T14:50:07.682Z,-21730.38
2019-03-27T14:52:35.989Z,-21768.06
2019-03-27T14:55:07.112Z,-21723.47
2019-03-27T14:57:35.579Z,-21747.23
2019-03-27T15:00:09.093Z,-21760.06
2019-03-27T15:02:37.372Z,-21729.69
2019-03-27T15:05:07.436Z,-21699.12
2019-03-27T15:07:35.696Z,-21658.10
2019-03-27T15:10:06.234Z,-21655.60
2019-03-27T15:12:34.471Z,-21689.57
2019-03-27T15:15:02.811Z,-21690.81
2019-03-27T15:17:31.099Z,-21703.55
2019-03-27T15:19:59.358Z,-21741.29
2019-03-27T15:22:27.628Z,-21780.46
2019-03-27T15:24:55.926Z,-21743.36
2019-03-27T15:27:24.206Z,-21695.80
2019-03-27T15:29:52.501Z,-21663.65
2019-03-27T15:32:20.767Z,-21656.02
2019-03-27T15:34:49.034Z,-21679.04
2019-03-27T15:37:17.314Z,-21667.53
2019-03-27T15:39:45.570Z,-21676.68
2019-03-27T15:42:13.827Z,-21651.16
2019-03-27T15:44:42.147Z,-21669.75
2019-03-27T15:47:10.424Z,-21601.54
2019-03-27T15:49:38.695Z,-21602.93
2019-03-27T15:52:06.975Z,-21627.40
2019-03-27T15:54:35.240Z,-21648.11
2019-03-27T15:57:03.851Z,-21630.88
2019-03-27T15:59:32.122Z,-21611.83
2019-03-27T16:02:00.397Z,-21635.05
2019-03-27T16:04:28.739Z,-21609.33
2019-03-27T16:06:57.005Z,-21605.71
2019-03-27T16:09:25.396Z,-21593.32
2019-03-27T16:11:53.673Z,-21615.45
2019-03-27T16:14:21.969Z,-21601.54
2019-03-27T16:17:06.673Z,-21610.02
2019-03-27T16:19:20.223Z,-21617.54
2019-03-27T16:21:48.523Z,-21637.00
2019-03-27T16:24:16.796Z,-21629.77
2019-03-27T16:26:49.857Z,-21620.87
2019-03-27T16:29:15.074Z,-21605.57
2019-03-27T16:31:43.376Z,-21603.91
2019-03-27T16:34:11.666Z,-21607.80
2019-03-27T16:36:39.945Z,-21621.02
2019-03-27T16:39:08.199Z,-21640.75
2019-03-27T16:41:36.494Z,-21618.64
2019-03-27T16:44:04.846Z,-21637.55
2019-03-27T16:46:33.141Z,-21624.21
2019-03-27T16:49:01.434Z,-21616.00
2019-03-27T16:51:30.362Z,-21610.58
2019-03-27T16:53:59.715Z,-21627.96
2019-03-27T16:56:28.048Z,-21637.00
2019-03-27T16:59:04.030Z,-21595.13
2019-03-27T17:01:32.615Z,-21602.79
2019-03-27T17:04:00.875Z,-21579.25
2019-03-27T17:06:29.155Z,-21576.33
2019-03-27T17:08:57.447Z,-21557.36
2019-03-27T17:11:25.727Z,-21579.53
2019-03-27T17:13:53.988Z,-21584.26
2019-03-27T17:16:22.248Z,-21583.43
2019-03-27T17:18:50.537Z,-21597.50
2019-03-27T17:21:18.808Z,-21607.80
2019-03-27T17:23:47.106Z,-21605.02
2019-03-27T17:26:15.355Z,-21598.19
2019-03-27T17:28:43.627Z,-21609.05
2019-03-27T17:31:11.958Z,-21620.32
2019-03-27T17:33:40.253Z,-21623.38
2019-03-27T17:36:08.525Z,-21619.76
2019-03-27T17:38:36.784Z,-21611.14
2019-03-27T17:41:05.129Z,-21603.63
2019-03-27T17:43:33.405Z,-21617.81
2019-03-27T17:46:01.693Z,-21600.70
2019-03-27T17:48:29.964Z,-21606.27
2019-03-27T17:50:58.215Z,-21608.50
2019-03-27T17:53:31.975Z,-21591.65
2019-03-27T17:55:56.523Z,-21595.55
2019-03-27T17:58:24.799Z,-21618.92
2019-03-27T18:00:53.143Z,-21598.61
2019-03-27T18:03:21.437Z,-21602.37
2019-03-27T18:05:49.724Z,-21611.97
2019-03-27T18:08:17.988Z,-21589.01
2019-03-27T18:10:46.293Z,-21601.12
2019-03-27T18:13:14.551Z,-21595.69
2019-03-27T18:15:42.838Z,-21551.64
2019-03-27T18:18:11.196Z,-21580.78
2019-03-27T18:20:39.458Z,-21581.34
2019-03-27T18:23:07.736Z,-21583.29
2019-03-27T18:25:36.012Z,-21544.10
2019-03-27T18:28:04.361Z,-21591.23
2019-03-27T18:30:32.630Z,-21581.20
2019-03-27T18:33:00.929Z,-21565.87
2019-03-27T18:35:29.213Z,-21574.65
2019-03-27T18:37:57.473Z,-21609.88
2019-03-27T18:40:25.767Z,-21597.08
2019-03-27T18:42:54.049Z,-21625.60
2019-03-27T18:45:22.367Z,-21612.25
2019-03-27T18:47:50.684Z,-21596.11
2019-03-27T18:50:19.027Z,-21598.33
2019-03-27T18:52:47.291Z,-21598.05
2019-03-27T18:55:25.713Z,-21573.26
2019-03-27T18:57:59.089Z,-21592.49
2019-03-27T19:00:15.973Z,-21568.10
2019-03-27T19:02:44.252Z,-21583.43
2019-03-27T19:05:12.946Z,-21564.61
2019-03-27T19:07:41.218Z,-21550.94
2019-03-27T19:10:09.645Z,-21554.85
2019-03-27T19:12:37.904Z,-21537.54
2019-03-27T19:15:07.430Z,-21542.56
2019-03-27T19:17:35.730Z,-21574.23
2019-03-27T19:20:06.146Z,-21575.49
2019-03-27T19:22:34.411Z,-21584.41
2019-03-27T19:25:02.711Z,-21569.36
2019-03-27T19:27:31.017Z,-21549.69
2019-03-27T19:29:59.281Z,-21578.14
2019-03-27T19:32:27.546Z,-21573.54
2019-03-27T19:34:55.852Z,-21566.99
2019-03-27T19:37:26.173Z,-21545.36
2019-03-27T19:39:54.422Z,-21563.50
2019-03-27T19:42:22.721Z,-21554.01
2019-03-27T19:44:51.015Z,-21549.27
2019-03-27T19:47:19.257Z,-21575.77
2019-03-27T19:49:47.564Z,-21532.37
2019-03-27T19:52:15.828Z,-21521.61
2019-03-27T19:54:44.092Z,-21517.70
2019-03-27T19:57:12.351Z,-21511.97
2019-03-27T19:59:40.637Z,-21512.80
2019-03-27T20:02:09.182Z,-21468.29
2019-03-27T20:04:37.459Z,-21470.67
2019-03-27T20:07:05.800Z,-21484.39
2019-03-27T20:09:34.081Z,-21493.92
2019-03-27T20:12:02.380Z,-21467.45
2019-03-27T20:14:30.651Z,-21468.84
2019-03-27T20:16:58.953Z,-21470.25
2019-03-27T20:19:29.284Z,-21471.65
2019-03-27T20:21:57.617Z,-21476.13
2019-03-27T20:24:25.913Z,-21485.80
2019-03-27T20:26:54.187Z,-21482.16
2019-03-27T20:29:22.448Z,-21483.97
2019-03-27T20:31:50.717Z,-21486.91
2019-03-27T20:34:18.982Z,-21497.84
2019-03-27T20:36:47.278Z,-21494.90
2019-03-27T20:39:15.538Z,-21475.29
2019-03-27T20:41:43.849Z,-21493.50
2019-03-27T20:44:12.117Z,-21494.34
2019-03-27T20:46:40.402Z,-21488.04
2019-03-27T20:49:08.687Z,-21491.40
2019-03-27T20:51:36.974Z,-21464.36
2019-03-27T20:54:05.242Z,-21470.81
2019-03-27T20:56:33.538Z,-21486.49
2019-03-27T20:59:03.877Z,-21467.30
2019-03-27T21:01:31.886Z,-21475.71
2019-03-27T21:04:00.436Z,-21462.54
2019-03-27T21:06:28.705Z,-21477.11
2019-03-27T21:08:56.995Z,-21474.87
2019-03-27T21:11:25.286Z,-21474.17
2019-03-27T21:13:53.560Z,-21434.62
2019-03-27T21:16:21.939Z,-21441.36
2019-03-27T21:18:50.242Z,-21448.09
2019-03-27T21:21:18.524Z,-21442.90
2019-03-27T21:23:46.820Z,-21492.38
2019-03-27T21:26:15.080Z,-21421.99
2019-03-27T21:28:43.358Z,-21466.75
2019-03-27T21:31:11.613Z,-21478.79
2019-03-27T21:33:39.900Z,-21457.21
2019-03-27T21:36:08.166Z,-21421.84
2019-03-27T21:38:36.454Z,-21449.50
2019-03-27T21:41:04.819Z,-21442.76
2019-03-27T21:43:34.124Z,-21432.79
2019-03-27T21:46:02.405Z,-21427.88
2019-03-27T21:48:30.682Z,-21473.05
2019-03-27T21:50:58.972Z,-21490.84
2019-03-27T21:53:27.231Z,-21489.72
2019-03-27T21:55:55.523Z,-21455.24
2019-03-27T21:58:23.805Z,-21447.82
2019-03-27T22:00:52.214Z,-21460.71
2019-03-27T22:03:20.567Z,-21464.78
2019-03-27T22:05:48.854Z,-21470.81
2019-03-27T22:08:17.307Z,-21470.95
2019-03-27T22:10:45.571Z,-21452.44
2019-03-27T22:13:13.879Z,-21444.17
2019-03-27T22:15:42.154Z,-21452.02
2019-03-27T22:18:10.424Z,-21447.39
2019-03-27T22:20:39.809Z,-21446.13
2019-03-27T22:23:08.368Z,-21443.74
2019-03-27T22:25:36.734Z,-21439.95
2019-03-27T22:28:04.984Z,-21461.42
2019-03-27T22:30:33.247Z,-21462.68
2019-03-27T22:33:01.519Z,-21477.25
2019-03-27T22:35:29.802Z,-21475.99
2019-03-27T22:37:58.061Z,-21467.30
2019-03-27T22:40:26.363Z,-21461.98
2019-03-27T22:42:57.018Z,-21433.78
2019-03-27T22:45:26.867Z,-21424.23
2019-03-27T22:47:55.165Z,-21435.74
2019-03-27T22:50:23.436Z,-21438.27
2019-03-27T22:52:51.751Z,-21446.27
2019-03-27T22:55:20.017Z,-21427.46
2019-03-27T22:57:48.283Z,-21430.55
2019-03-27T23:00:16.813Z,-21427.04
2019-03-27T23:02:45.260Z,-21458.61
2019-03-27T23:05:13.522Z,-21443.74
2019-03-27T23:07:41.808Z,-21466.88
2019-03-27T23:10:13.638Z,-21456.51
2019-03-27T23:12:43.766Z,-21471.37
2019-03-27T23:15:12.068Z,-21469.13
2019-03-27T23:17:40.335Z,-21475.02
2019-03-27T23:20:09.221Z,-21441.64
2019-03-27T23:22:37.444Z,-21457.63
2019-03-27T23:25:06.375Z,-21432.93
2019-03-27T23:27:36.204Z,-21457.77
2019-03-27T23:30:08.711Z,-21432.09
2019-03-27T23:32:37.141Z,-21452.44
2019-03-27T23:35:08.531Z,-21436.16
2019-03-27T23:37:36.938Z,-21432.52
2019-03-27T23:40:06.169Z,-21452.72
2019-03-27T23:42:36.057Z,-21440.38
2019-03-27T23:45:05.769Z,-21397.25
2019-03-27T23:47:37.070Z,-21445.29
2019-03-27T23:50:10.327Z,-21458.75
2019-03-27T23:52:38.578Z,-21473.05
2019-03-27T23:55:07.028Z,-21488.46
2019-03-27T23:57:35.312Z,-21477.67
